FIN5LA EFHK-ESSA
Flight info
| Callsign | FIN5LA |
|---|---|
| Flight time | 0h 46m |
| Altitude | 30000 |
| Route | ADIVO Y365 POGOK DCT RUNGA N872 XILAN |
| Aircraft | A320/M-SDE1E2E3FGIM1RWXYZ/LB1 |
Departure
| Time | 2026-04-25 22:34 |
|---|---|
| Airport | Helsinki Vantaa Airport (EFHK) |
Arrival
| Time | 2026-04-25 23:21 |
|---|---|
| Airport | Stockholm-Arlanda Airport (ESSA) |
| Time | Latitude | Longitude | Altitude | Speed | Heading |
|---|---|---|---|---|---|
| 2026-04-25 21:57 | 60.31864 | 24.96999 | 164 ft | 0 kts | 244° |
| 2026-04-25 22:22 | 60.31867 | 24.97013 | 163 ft | 3 kts | 240° |
| 2026-04-25 22:22 | 60.31880 | 24.97051 | 163 ft | 3 kts | 221° |
| 2026-04-25 22:22 | 60.31899 | 24.97077 | 163 ft | 3 kts | 198° |
| 2026-04-25 22:22 | 60.31921 | 24.97085 | 163 ft | 3 kts | 175° |
| 2026-04-25 22:23 | 60.31944 | 24.97076 | 163 ft | 3 kts | 154° |
| 2026-04-25 22:23 | 60.31947 | 24.97072 | 163 ft | 0 kts | 152° |
| 2026-04-25 22:27 | 60.31944 | 24.97075 | 163 ft | 3 kts | 152° |
| 2026-04-25 22:27 | 60.31895 | 24.97126 | 163 ft | 9 kts | 153° |
| 2026-04-25 22:27 | 60.31846 | 24.97175 | 163 ft | 7 kts | 153° |
| 2026-04-25 22:27 | 60.31784 | 24.97237 | 163 ft | 13 kts | 153° |
| 2026-04-25 22:28 | 60.31696 | 24.97326 | 163 ft | 13 kts | 153° |
| 2026-04-25 22:28 | 60.31622 | 24.97403 | 163 ft | 12 kts | 153° |
| 2026-04-25 22:28 | 60.31542 | 24.97487 | 163 ft | 14 kts | 152° |
| 2026-04-25 22:28 | 60.31453 | 24.97586 | 163 ft | 15 kts | 153° |
| 2026-04-25 22:29 | 60.31384 | 24.97703 | 163 ft | 12 kts | 101° |
| 2026-04-25 22:29 | 60.31352 | 24.97835 | 161 ft | 11 kts | 155° |
| 2026-04-25 22:29 | 60.31272 | 24.97919 | 162 ft | 15 kts | 153° |
| 2026-04-25 22:30 | 60.31030 | 24.98169 | 162 ft | 21 kts | 155° |
| 2026-04-25 22:30 | 60.30901 | 24.98274 | 160 ft | 19 kts | 159° |
| 2026-04-25 22:30 | 60.30786 | 24.98374 | 158 ft | 17 kts | 156° |
| 2026-04-25 22:30 | 60.30718 | 24.98433 | 158 ft | 15 kts | 157° |
| 2026-04-25 22:31 | 60.30662 | 24.98594 | 157 ft | 0 kts | 86° |
| 2026-04-25 22:31 | 60.30662 | 24.98598 | 156 ft | 2 kts | 85° |
| 2026-04-25 22:31 | 60.30682 | 24.98694 | 156 ft | 12 kts | 59° |
| 2026-04-25 22:31 | 60.30741 | 24.98794 | 156 ft | 10 kts | 348° |
| 2026-04-25 22:32 | 60.30767 | 24.98769 | 156 ft | 0 kts | 333° |
| 2026-04-25 22:33 | 60.30775 | 24.98761 | 156 ft | 7 kts | 333° |
| 2026-04-25 22:33 | 60.30988 | 24.98542 | 155 ft | 69 kts | 333° |
| 2026-04-25 22:34 | 60.31601 | 24.97912 | 154 ft | 126 kts | 333° |
| 2026-04-25 22:34 | 60.32455 | 24.97039 | 562 ft | 136 kts | 333° |
| 2026-04-25 22:34 | 60.33294 | 24.96174 | 1197 ft | 135 kts | 324° |
| 2026-04-25 22:34 | 60.34028 | 24.94837 | 1667 ft | 153 kts | 313° |
| 2026-04-25 22:35 | 60.34665 | 24.92929 | 2043 ft | 175 kts | 300° |
| 2026-04-25 22:35 | 60.35088 | 24.90432 | 2369 ft | 203 kts | 285° |
| 2026-04-25 22:35 | 60.35104 | 24.87363 | 2793 ft | 235 kts | 265° |
| 2026-04-25 22:35 | 60.34510 | 24.84082 | 3399 ft | 260 kts | 246° |
| 2026-04-25 22:36 | 60.33623 | 24.80834 | 4261 ft | 267 kts | 246° |
| 2026-04-25 22:36 | 60.32729 | 24.77514 | 5211 ft | 270 kts | 246° |
| 2026-04-25 22:36 | 60.31838 | 24.74174 | 6186 ft | 271 kts | 246° |
| 2026-04-25 22:36 | 60.30941 | 24.70801 | 7138 ft | 273 kts | 247° |
| 2026-04-25 22:37 | 60.30132 | 24.67343 | 8018 ft | 273 kts | 256° |
| 2026-04-25 22:37 | 60.29746 | 24.63614 | 8936 ft | 270 kts | 270° |
| 2026-04-25 22:37 | 60.29733 | 24.59836 | 9753 ft | 274 kts | 275° |
| 2026-04-25 22:37 | 60.29755 | 24.55822 | 10060 ft | 297 kts | 275° |
| 2026-04-25 22:38 | 60.29769 | 24.53004 | 10350 ft | 308 kts | 274° |
| 2026-04-25 22:38 | 60.29784 | 24.48652 | 11053 ft | 314 kts | 274° |
| 2026-04-25 22:38 | 60.29791 | 24.44162 | 11870 ft | 318 kts | 274° |
| 2026-04-25 22:38 | 60.29793 | 24.39680 | 12695 ft | 320 kts | 273° |
| 2026-04-25 22:39 | 60.29792 | 24.35163 | 13477 ft | 324 kts | 273° |
| 2026-04-25 22:39 | 60.29789 | 24.30597 | 14183 ft | 326 kts | 273° |
| 2026-04-25 22:39 | 60.29788 | 24.26017 | 14901 ft | 328 kts | 273° |
| 2026-04-25 22:39 | 60.29787 | 24.21402 | 15628 ft | 330 kts | 273° |
| 2026-04-25 22:40 | 60.29786 | 24.16750 | 16336 ft | 333 kts | 273° |
| 2026-04-25 22:40 | 60.29781 | 24.12127 | 17036 ft | 335 kts | 272° |
| 2026-04-25 22:40 | 60.29773 | 24.07413 | 17738 ft | 337 kts | 272° |
| 2026-04-25 22:40 | 60.29764 | 24.02600 | 18356 ft | 339 kts | 272° |
| 2026-04-25 22:41 | 60.29675 | 23.97826 | 18924 ft | 345 kts | 266° |
| 2026-04-25 22:41 | 60.29218 | 23.93037 | 19494 ft | 350 kts | 261° |
| 2026-04-25 22:41 | 60.28698 | 23.88241 | 20067 ft | 353 kts | 261° |
| 2026-04-25 22:41 | 60.28175 | 23.83467 | 20634 ft | 356 kts | 261° |
| 2026-04-25 22:42 | 60.27630 | 23.78492 | 21204 ft | 359 kts | 261° |
| 2026-04-25 22:42 | 60.27091 | 23.73555 | 21765 ft | 363 kts | 261° |
| 2026-04-25 22:42 | 60.26557 | 23.68633 | 22310 ft | 366 kts | 261° |
| 2026-04-25 22:42 | 60.26003 | 23.63548 | 22869 ft | 369 kts | 261° |
| 2026-04-25 22:43 | 60.25445 | 23.58478 | 23342 ft | 373 kts | 261° |
| 2026-04-25 22:43 | 60.24878 | 23.53352 | 23777 ft | 376 kts | 260° |
| 2026-04-25 22:43 | 60.24303 | 23.48204 | 24202 ft | 378 kts | 260° |
| 2026-04-25 22:43 | 60.23728 | 23.43099 | 24624 ft | 381 kts | 260° |
| 2026-04-25 22:44 | 60.23137 | 23.37870 | 25040 ft | 383 kts | 260° |
| 2026-04-25 22:44 | 60.22538 | 23.32567 | 25457 ft | 386 kts | 260° |
| 2026-04-25 22:44 | 60.21940 | 23.27283 | 25835 ft | 388 kts | 260° |
| 2026-04-25 22:44 | 60.21344 | 23.22013 | 26242 ft | 390 kts | 260° |
| 2026-04-25 22:45 | 60.20736 | 23.16662 | 26632 ft | 393 kts | 259° |
| 2026-04-25 22:45 | 60.20121 | 23.11249 | 27012 ft | 395 kts | 259° |
| 2026-04-25 22:45 | 60.19500 | 23.05834 | 27381 ft | 397 kts | 259° |
| 2026-04-25 22:45 | 60.18875 | 23.00423 | 27754 ft | 400 kts | 259° |
| 2026-04-25 22:46 | 60.18242 | 22.94952 | 28116 ft | 402 kts | 259° |
| 2026-04-25 22:46 | 60.17604 | 22.89461 | 28470 ft | 405 kts | 259° |
| 2026-04-25 22:46 | 60.16959 | 22.83938 | 28805 ft | 407 kts | 259° |
| 2026-04-25 22:46 | 60.16322 | 22.78468 | 29150 ft | 409 kts | 259° |
| 2026-04-25 22:47 | 60.15662 | 22.72823 | 29490 ft | 411 kts | 259° |
| 2026-04-25 22:47 | 60.15003 | 22.67229 | 29615 ft | 409 kts | 259° |
| 2026-04-25 22:47 | 60.14356 | 22.61785 | 29628 ft | 393 kts | 259° |
| 2026-04-25 22:47 | 60.13727 | 22.56521 | 29632 ft | 387 kts | 259° |
| 2026-04-25 22:48 | 60.12472 | 22.46039 | 29640 ft | 385 kts | 259° |
| 2026-04-25 22:48 | 60.11220 | 22.35614 | 29650 ft | 384 kts | 259° |
| 2026-04-25 22:49 | 60.09956 | 22.25188 | 29652 ft | 382 kts | 259° |
| 2026-04-25 22:49 | 60.09336 | 22.20121 | 29650 ft | 369 kts | 259° |
| 2026-04-25 22:49 | 60.08727 | 22.15166 | 29656 ft | 365 kts | 259° |
| 2026-04-25 22:50 | 60.07516 | 22.05326 | 29668 ft | 363 kts | 259° |
| 2026-04-25 22:50 | 60.06303 | 21.95535 | 29664 ft | 363 kts | 259° |
| 2026-04-25 22:51 | 60.05090 | 21.85758 | 29674 ft | 363 kts | 259° |
| 2026-04-25 22:51 | 60.03869 | 21.76003 | 29657 ft | 362 kts | 259° |
| 2026-04-25 22:52 | 60.02624 | 21.66185 | 29673 ft | 362 kts | 258° |
| 2026-04-25 22:52 | 60.01590 | 21.58088 | 29656 ft | 362 kts | 258° |
| 2026-04-25 22:53 | 60.00127 | 21.46662 | 29662 ft | 362 kts | 258° |
| 2026-04-25 22:53 | 59.98859 | 21.36846 | 29683 ft | 362 kts | 258° |
| 2026-04-25 22:54 | 59.97531 | 21.27140 | 29728 ft | 358 kts | 257° |
| 2026-04-25 22:54 | 59.96187 | 21.17605 | 29723 ft | 355 kts | 257° |
| 2026-04-25 22:55 | 59.94850 | 21.08150 | 29728 ft | 353 kts | 257° |
| 2026-04-25 22:55 | 59.93511 | 20.98675 | 29717 ft | 352 kts | 257° |
| 2026-04-25 22:56 | 59.92193 | 20.89351 | 29720 ft | 351 kts | 257° |
| 2026-04-25 22:56 | 59.90847 | 20.79925 | 29708 ft | 351 kts | 257° |
| 2026-04-25 22:57 | 59.89507 | 20.70586 | 29712 ft | 351 kts | 257° |
| 2026-04-25 22:57 | 59.88165 | 20.61224 | 29306 ft | 351 kts | 257° |
| 2026-04-25 22:58 | 59.87494 | 20.56563 | 28889 ft | 351 kts | 257° |
| 2026-04-25 22:58 | 59.86820 | 20.51904 | 28459 ft | 352 kts | 257° |
| 2026-04-25 22:58 | 59.86136 | 20.47210 | 28043 ft | 352 kts | 257° |
| 2026-04-25 22:58 | 59.85450 | 20.42534 | 27630 ft | 353 kts | 257° |
| 2026-04-25 22:59 | 59.84760 | 20.37836 | 27212 ft | 353 kts | 257° |
| 2026-04-25 22:59 | 59.84068 | 20.33137 | 26813 ft | 354 kts | 257° |
| 2026-04-25 22:59 | 59.83377 | 20.28464 | 26412 ft | 354 kts | 257° |
| 2026-04-25 22:59 | 59.82680 | 20.23749 | 26017 ft | 355 kts | 257° |
| 2026-04-25 23:00 | 59.81985 | 20.19046 | 25624 ft | 356 kts | 257° |
| 2026-04-25 23:00 | 59.81284 | 20.14295 | 25202 ft | 357 kts | 257° |
| 2026-04-25 23:00 | 59.80581 | 20.09560 | 24724 ft | 358 kts | 258° |
| 2026-04-25 23:00 | 59.79873 | 20.04830 | 24351 ft | 358 kts | 257° |
| 2026-04-25 23:01 | 59.79163 | 20.00110 | 24005 ft | 352 kts | 257° |
| 2026-04-25 23:01 | 59.78469 | 19.95530 | 23887 ft | 339 kts | 257° |
| 2026-04-25 23:01 | 59.77802 | 19.91134 | 23786 ft | 327 kts | 258° |
| 2026-04-25 23:01 | 59.77148 | 19.86842 | 23666 ft | 314 kts | 258° |
| 2026-04-25 23:02 | 59.76529 | 19.82794 | 23385 ft | 300 kts | 258° |
| 2026-04-25 23:02 | 59.75932 | 19.78877 | 22768 ft | 293 kts | 258° |
| 2026-04-25 23:02 | 59.75342 | 19.75000 | 22112 ft | 289 kts | 258° |
| 2026-04-25 23:02 | 59.74770 | 19.71202 | 21460 ft | 285 kts | 258° |
| 2026-04-25 23:03 | 59.74239 | 19.67434 | 20835 ft | 281 kts | 259° |
| 2026-04-25 23:03 | 59.73736 | 19.63709 | 20343 ft | 279 kts | 259° |
| 2026-04-25 23:03 | 59.73238 | 19.59974 | 19961 ft | 280 kts | 259° |
| 2026-04-25 23:03 | 59.72736 | 19.56248 | 19584 ft | 280 kts | 259° |
| 2026-04-25 23:04 | 59.72230 | 19.52530 | 19209 ft | 279 kts | 259° |
| 2026-04-25 23:04 | 59.71893 | 19.50073 | 18951 ft | 279 kts | 258° |
| 2026-04-25 23:04 | 59.71214 | 19.45133 | 18483 ft | 279 kts | 258° |
| 2026-04-25 23:04 | 59.70701 | 19.41422 | 18188 ft | 275 kts | 258° |
| 2026-04-25 23:05 | 59.70368 | 19.39027 | 17975 ft | 274 kts | 258° |
| 2026-04-25 23:05 | 59.69858 | 19.35372 | 17592 ft | 273 kts | 258° |
| 2026-04-25 23:05 | 59.69348 | 19.31744 | 17168 ft | 273 kts | 258° |
| 2026-04-25 23:05 | 59.68845 | 19.28169 | 16766 ft | 267 kts | 258° |
| 2026-04-25 23:06 | 59.68188 | 19.23503 | 16321 ft | 265 kts | 258° |
| 2026-04-25 23:06 | 59.67692 | 19.19986 | 15981 ft | 265 kts | 258° |
| 2026-04-25 23:06 | 59.67359 | 19.17634 | 15755 ft | 265 kts | 258° |
| 2026-04-25 23:06 | 59.66863 | 19.14128 | 15413 ft | 264 kts | 258° |
| 2026-04-25 23:07 | 59.66366 | 19.10619 | 15068 ft | 264 kts | 258° |
| 2026-04-25 23:07 | 59.65869 | 19.07113 | 14743 ft | 264 kts | 258° |
| 2026-04-25 23:07 | 59.65372 | 19.03613 | 14383 ft | 265 kts | 258° |
| 2026-04-25 23:07 | 59.64876 | 19.00156 | 14226 ft | 258 kts | 258° |
| 2026-04-25 23:08 | 59.64391 | 18.96784 | 13790 ft | 254 kts | 257° |
| 2026-04-25 23:08 | 59.63907 | 18.93425 | 13234 ft | 253 kts | 257° |
| 2026-04-25 23:08 | 59.63422 | 18.90076 | 12810 ft | 253 kts | 257° |
| 2026-04-25 23:08 | 59.62938 | 18.86724 | 12426 ft | 254 kts | 257° |
| 2026-04-25 23:09 | 59.62455 | 18.83350 | 12045 ft | 255 kts | 257° |
| 2026-04-25 23:09 | 59.61977 | 18.80021 | 11664 ft | 256 kts | 257° |
| 2026-04-25 23:09 | 59.61488 | 18.76626 | 11293 ft | 257 kts | 257° |
| 2026-04-25 23:09 | 59.60993 | 18.73228 | 10912 ft | 258 kts | 257° |
| 2026-04-25 23:10 | 59.60498 | 18.69859 | 10652 ft | 253 kts | 257° |
| 2026-04-25 23:10 | 59.60007 | 18.66528 | 10183 ft | 250 kts | 257° |
| 2026-04-25 23:10 | 59.59525 | 18.63245 | 9899 ft | 248 kts | 257° |
| 2026-04-25 23:10 | 59.59042 | 18.59953 | 9834 ft | 251 kts | 257° |
| 2026-04-25 23:11 | 59.58557 | 18.56630 | 9458 ft | 254 kts | 257° |
| 2026-04-25 23:11 | 59.58087 | 18.53421 | 8953 ft | 249 kts | 257° |
| 2026-04-25 23:11 | 59.57604 | 18.50145 | 8520 ft | 247 kts | 257° |
| 2026-04-25 23:11 | 59.57132 | 18.46942 | 8084 ft | 245 kts | 257° |
| 2026-04-25 23:12 | 59.56650 | 18.43681 | 7661 ft | 245 kts | 256° |
| 2026-04-25 23:12 | 59.56043 | 18.40591 | 7316 ft | 244 kts | 249° |
| 2026-04-25 23:12 | 59.55327 | 18.37561 | 6974 ft | 243 kts | 248° |
| 2026-04-25 23:12 | 59.54601 | 18.34552 | 6601 ft | 242 kts | 248° |
| 2026-04-25 23:13 | 59.53883 | 18.31563 | 6236 ft | 241 kts | 248° |
| 2026-04-25 23:13 | 59.53178 | 18.28639 | 5931 ft | 231 kts | 248° |
| 2026-04-25 23:13 | 59.52492 | 18.25811 | 5407 ft | 228 kts | 248° |
| 2026-04-25 23:13 | 59.51807 | 18.22996 | 4971 ft | 228 kts | 248° |
| 2026-04-25 23:14 | 59.51126 | 18.20193 | 4636 ft | 226 kts | 248° |
| 2026-04-25 23:14 | 59.50445 | 18.17402 | 4289 ft | 225 kts | 248° |
| 2026-04-25 23:14 | 59.49766 | 18.14637 | 3996 ft | 224 kts | 248° |
| 2026-04-25 23:14 | 59.49080 | 18.11846 | 3798 ft | 226 kts | 250° |
| 2026-04-25 23:15 | 59.48562 | 18.08961 | 3589 ft | 224 kts | 257° |
| 2026-04-25 23:15 | 59.48123 | 18.06046 | 3324 ft | 219 kts | 258° |
| 2026-04-25 23:15 | 59.47699 | 18.03201 | 3121 ft | 215 kts | 258° |
| 2026-04-25 23:15 | 59.47337 | 18.00373 | 2913 ft | 211 kts | 270° |
| 2026-04-25 23:16 | 59.47330 | 17.97514 | 2704 ft | 208 kts | 277° |
| 2026-04-25 23:16 | 59.47399 | 17.94720 | 2555 ft | 202 kts | 278° |
| 2026-04-25 23:16 | 59.47696 | 17.92098 | 2502 ft | 193 kts | 300° |
| 2026-04-25 23:16 | 59.48449 | 17.90013 | 2502 ft | 181 kts | 315° |
| 2026-04-25 23:17 | 59.49294 | 17.88314 | 2530 ft | 171 kts | 323° |
| 2026-04-25 23:17 | 59.50320 | 17.87213 | 2509 ft | 166 kts | 343° |
| 2026-04-25 23:17 | 59.51457 | 17.86946 | 2497 ft | 166 kts | 2° |
| 2026-04-25 23:17 | 59.52601 | 17.87315 | 2422 ft | 166 kts | 8° |
| 2026-04-25 23:18 | 59.53732 | 17.87723 | 2246 ft | 164 kts | 8° |
| 2026-04-25 23:18 | 59.54806 | 17.88111 | 2036 ft | 150 kts | 7° |
| 2026-04-25 23:18 | 59.55812 | 17.88473 | 1840 ft | 143 kts | 7° |
| 2026-04-25 23:18 | 59.56772 | 17.88819 | 1650 ft | 136 kts | 6° |
| 2026-04-25 23:19 | 59.57701 | 17.89152 | 1471 ft | 136 kts | 6° |
| 2026-04-25 23:19 | 59.58634 | 17.89487 | 1275 ft | 137 kts | 7° |
| 2026-04-25 23:19 | 59.59572 | 17.89823 | 1047 ft | 138 kts | 7° |
| 2026-04-25 23:19 | 59.60512 | 17.90161 | 793 ft | 137 kts | 7° |
| 2026-04-25 23:20 | 59.61457 | 17.90503 | 609 ft | 139 kts | 6° |
| 2026-04-25 23:20 | 59.62409 | 17.90847 | 428 ft | 140 kts | 6° |
| 2026-04-25 23:20 | 59.63372 | 17.91191 | 239 ft | 141 kts | 6° |
| 2026-04-25 23:20 | 59.64299 | 17.91521 | 142 ft | 117 kts | 11° |
| 2026-04-25 23:21 | 59.64803 | 17.91707 | 145 ft | 38 kts | 10° |
| 2026-04-25 23:21 | 59.65059 | 17.91809 | 142 ft | 37 kts | 20° |
| 2026-04-25 23:21 | 59.65242 | 17.92002 | 141 ft | 27 kts | 42° |
| 2026-04-25 23:21 | 59.65325 | 17.92158 | 139 ft | 6 kts | 46° |
| 2026-04-25 23:22 | 59.65335 | 17.92177 | 138 ft | 0 kts | 46° |
| 2026-04-25 23:22 | 59.65335 | 17.92178 | 138 ft | 0 kts | 46° |
| 2026-04-25 23:22 | 59.65335 | 17.92186 | 138 ft | 1 kts | 81° |
| 2026-04-25 23:23 | 59.65314 | 17.92285 | 138 ft | 4 kts | 113° |
| 2026-04-25 23:23 | 59.65302 | 17.92341 | 138 ft | 7 kts | 113° |
| 2026-04-25 23:23 | 59.65256 | 17.92409 | 138 ft | 9 kts | 179° |
| 2026-04-25 23:23 | 59.65199 | 17.92384 | 138 ft | 8 kts | 192° |
| 2026-04-25 23:24 | 59.65149 | 17.92365 | 138 ft | 7 kts | 189° |
| 2026-04-25 23:24 | 59.65107 | 17.92351 | 138 ft | 6 kts | 190° |
| 2026-04-25 23:24 | 59.65047 | 17.92327 | 138 ft | 13 kts | 191° |
| 2026-04-25 23:24 | 59.64935 | 17.92285 | 138 ft | 20 kts | 191° |
| 2026-04-25 23:25 | 59.64790 | 17.92234 | 138 ft | 22 kts | 189° |
| 2026-04-25 23:25 | 59.64629 | 17.92176 | 138 ft | 24 kts | 191° |
| 2026-04-25 23:25 | 59.64475 | 17.92120 | 138 ft | 13 kts | 191° |
| 2026-04-25 23:25 | 59.64404 | 17.92110 | 138 ft | 8 kts | 160° |
| 2026-04-25 23:26 | 59.64369 | 17.92188 | 138 ft | 7 kts | 119° |
| 2026-04-25 23:26 | 59.64346 | 17.92269 | 138 ft | 6 kts | 119° |
| 2026-04-25 23:26 | 59.64326 | 17.92341 | 138 ft | 6 kts | 119° |
| 2026-04-25 23:26 | 59.64309 | 17.92403 | 138 ft | 5 kts | 112° |
| 2026-04-25 23:27 | 59.64299 | 17.92455 | 138 ft | 4 kts | 112° |
| 2026-04-25 23:27 | 59.64290 | 17.92495 | 138 ft | 3 kts | 113° |
| 2026-04-25 23:27 | 59.64288 | 17.92530 | 138 ft | 4 kts | 77° |
| 2026-04-25 23:27 | 59.64318 | 17.92589 | 138 ft | 7 kts | 49° |
| 2026-04-25 23:28 | 59.64342 | 17.92638 | 138 ft | 3 kts | 46° |
| 2026-04-25 23:28 | 59.64356 | 17.92669 | 138 ft | 3 kts | 46° |
| 2026-04-25 23:28 | 59.64367 | 17.92691 | 138 ft | 2 kts | 46° |
| 2026-04-25 23:28 | 59.64374 | 17.92706 | 138 ft | 1 kts | 45° |
| 2026-04-25 23:29 | 59.64381 | 17.92718 | 138 ft | 1 kts | 45° |
| 2026-04-25 23:29 | 59.64386 | 17.92729 | 138 ft | 1 kts | 45° |
| 2026-04-25 23:29 | 59.64388 | 17.92733 | 138 ft | 2 kts | 45° |
| 2026-04-25 23:29 | 59.64390 | 17.92738 | 138 ft | 0 kts | 45° |
| 2026-04-25 23:30 | 59.64394 | 17.92746 | 138 ft | 0 kts | 45° |